sensor_id;sensor_type;location;lat;lon;timestamp;P1;durP1;ratioP1;P2;durP2;ratioP2
4292;SDS011;2160;51.172;6.808;2022-08-19T04:00:35;2.60;;;2.40;;
4292;SDS011;2160;51.172;6.808;2022-08-19T04:03:02;6.30;;;3.43;;
4292;SDS011;2160;51.172;6.808;2022-08-19T04:05:29;4.23;;;4.00;;
4292;SDS011;2160;51.172;6.808;2022-08-19T04:07:57;4.07;;;3.10;;
4292;SDS011;2160;51.172;6.808;2022-08-19T04:10:24;6.33;;;4.97;;
4292;SDS011;2160;51.172;6.808;2022-08-19T04:12:51;3.70;;;3.47;;
4292;SDS011;2160;51.172;6.808;2022-08-19T04:15:18;5.10;;;4.63;;
4292;SDS011;2160;51.172;6.808;2022-08-19T04:17:47;4.53;;;4.33;;
4292;SDS011;2160;51.172;6.808;2022-08-19T04:20:14;2.20;;;2.10;;
4292;SDS011;2160;51.172;6.808;2022-08-19T04:22:41;5.97;;;3.43;;
4292;SDS011;2160;51.172;6.808;2022-08-19T04:25:08;4.23;;;3.83;;
4292;SDS011;2160;51.172;6.808;2022-08-19T04:27:36;2.93;;;2.83;;
4292;SDS011;2160;51.172;6.808;2022-08-19T04:30:03;4.47;;;4.07;;
4292;SDS011;2160;51.172;6.808;2022-08-19T04:32:30;3.70;;;2.40;;
4292;SDS011;2160;51.172;6.808;2022-08-19T04:34:59;2.40;;;2.30;;
4292;SDS011;2160;51.172;6.808;2022-08-19T04:37:26;3.53;;;3.23;;
4292;SDS011;2160;51.172;6.808;2022-08-19T04:39:58;3.70;;;3.40;;
4292;SDS011;2160;51.172;6.808;2022-08-19T04:42:42;4.37;;;4.07;;
4292;SDS011;2160;51.172;6.808;2022-08-19T04:45:10;1.63;;;1.57;;
4292;SDS011;2160;51.172;6.808;2022-08-19T04:47:40;5.37;;;4.90;;
4292;SDS011;2160;51.172;6.808;2022-08-19T04:50:10;2.17;;;2.07;;
4292;SDS011;2160;51.172;6.808;2022-08-19T04:52:37;4.20;;;3.73;;
4292;SDS011;2160;51.172;6.808;2022-08-19T04:55:08;8.50;;;7.43;;
4292;SDS011;2160;51.172;6.808;2022-08-19T04:57:35;4.13;;;3.93;;
4292;SDS011;2160;51.172;6.808;2022-08-19T05:00:04;2.57;;;2.47;;
4292;SDS011;2160;51.172;6.808;2022-08-19T05:02:33;5.40;;;5.03;;
4292;SDS011;2160;51.172;6.808;2022-08-19T05:05:00;4.97;;;4.47;;
4292;SDS011;2160;51.172;6.808;2022-08-19T05:07:28;4.73;;;4.43;;
4292;SDS011;2160;51.172;6.808;2022-08-19T05:09:56;3.23;;;3.03;;
4292;SDS011;2160;51.172;6.808;2022-08-19T05:12:22;5.40;;;5.10;;
4292;SDS011;2160;51.172;6.808;2022-08-19T05:14:50;4.90;;;4.60;;
4292;SDS011;2160;51.172;6.808;2022-08-19T05:17:17;5.47;;;5.07;;
4292;SDS011;2160;51.172;6.808;2022-08-19T05:19:44;5.87;;;5.37;;
4292;SDS011;2160;51.172;6.808;2022-08-19T05:22:30;5.77;;;5.47;;
4292;SDS011;2160;51.172;6.808;2022-08-19T05:25:04;3.67;;;3.50;;
4292;SDS011;2160;51.172;6.808;2022-08-19T05:27:33;7.37;;;6.87;;
4292;SDS011;2160;51.172;6.808;2022-08-19T05:30:00;8.00;;;2.37;;
4292;SDS011;2160;51.172;6.808;2022-08-19T05:32:27;4.03;;;3.63;;
4292;SDS011;2160;51.172;6.808;2022-08-19T05:34:54;5.70;;;5.20;;
4292;SDS011;2160;51.172;6.808;2022-08-19T05:37:22;3.23;;;3.03;;
4292;SDS011;2160;51.172;6.808;2022-08-19T05:39:53;6.10;;;3.73;;
4292;SDS011;2160;51.172;6.808;2022-08-19T05:42:21;3.37;;;3.13;;
4292;SDS011;2160;51.172;6.808;2022-08-19T05:44:49;8.27;;;5.20;;
4292;SDS011;2160;51.172;6.808;2022-08-19T05:47:34;6.33;;;5.87;;
4292;SDS011;2160;51.172;6.808;2022-08-19T05:50:01;4.77;;;4.47;;
4292;SDS011;2160;51.172;6.808;2022-08-19T05:52:29;8.07;;;7.30;;
4292;SDS011;2160;51.172;6.808;2022-08-19T05:54:57;8.63;;;6.57;;
4292;SDS011;2160;51.172;6.808;2022-08-19T05:57:24;6.43;;;5.30;;
4292;SDS011;2160;51.172;6.808;2022-08-19T05:59:51;6.63;;;6.00;;
4292;SDS011;2160;51.172;6.808;2022-08-19T06:02:18;7.33;;;4.53;;
4292;SDS011;2160;51.172;6.808;2022-08-19T06:04:45;4.60;;;4.23;;
4292;SDS011;2160;51.172;6.808;2022-08-19T06:07:12;19.93;;;9.07;;
4292;SDS011;2160;51.172;6.808;2022-08-19T06:09:40;5.57;;;5.27;;
4292;SDS011;2160;51.172;6.808;2022-08-19T06:12:08;2.77;;;2.67;;
4292;SDS011;2160;51.172;6.808;2022-08-19T06:14:35;6.50;;;3.83;;
4292;SDS011;2160;51.172;6.808;2022-08-19T06:17:03;9.33;;;5.47;;
4292;SDS011;2160;51.172;6.808;2022-08-19T06:19:31;4.60;;;4.40;;
4292;SDS011;2160;51.172;6.808;2022-08-19T06:21:58;5.63;;;5.10;;
4292;SDS011;2160;51.172;6.808;2022-08-19T06:24:27;6.63;;;6.13;;
4292;SDS011;2160;51.172;6.808;2022-08-19T06:26:55;5.30;;;4.80;;
4292;SDS011;2160;51.172;6.808;2022-08-19T06:29:25;3.93;;;3.73;;
4292;SDS011;2160;51.172;6.808;2022-08-19T06:31:55;6.17;;;5.77;;
4292;SDS011;2160;51.172;6.808;2022-08-19T06:34:23;7.17;;;5.37;;
4292;SDS011;2160;51.172;6.808;2022-08-19T06:36:52;6.40;;;6.00;;
4292;SDS011;2160;51.172;6.808;2022-08-19T06:39:20;5.30;;;5.00;;
4292;SDS011;2160;51.172;6.808;2022-08-19T06:41:51;2.60;;;2.50;;
4292;SDS011;2160;51.172;6.808;2022-08-19T06:44:20;5.10;;;4.67;;
4292;SDS011;2160;51.172;6.808;2022-08-19T06:46:51;4.93;;;4.53;;
4292;SDS011;2160;51.172;6.808;2022-08-19T06:49:18;4.30;;;3.90;;
4292;SDS011;2160;51.172;6.808;2022-08-19T06:51:45;5.47;;;3.97;;
4292;SDS011;2160;51.172;6.808;2022-08-19T06:54:13;6.63;;;5.40;;
4292;SDS011;2160;51.172;6.808;2022-08-19T06:56:41;5.37;;;4.83;;
4292;SDS011;2160;51.172;6.808;2022-08-19T06:59:11;7.60;;;5.40;;
4292;SDS011;2160;51.172;6.808;2022-08-19T07:01:41;7.03;;;5.97;;
4292;SDS011;2160;51.172;6.808;2022-08-19T07:04:12;5.27;;;4.90;;
4292;SDS011;2160;51.172;6.808;2022-08-19T07:06:42;5.60;;;5.27;;
4292;SDS011;2160;51.172;6.808;2022-08-19T07:09:11;3.73;;;3.53;;
4292;SDS011;2160;51.172;6.808;2022-08-19T07:11:43;8.00;;;7.37;;
4292;SDS011;2160;51.172;6.808;2022-08-19T07:14:11;7.33;;;3.83;;
4292;SDS011;2160;51.172;6.808;2022-08-19T07:16:39;4.80;;;4.40;;
4292;SDS011;2160;51.172;6.808;2022-08-19T07:19:06;3.10;;;2.90;;
4292;SDS011;2160;51.172;6.808;2022-08-19T07:21:34;10.10;;;6.13;;
4292;SDS011;2160;51.172;6.808;2022-08-19T07:24:02;4.47;;;4.27;;
4292;SDS011;2160;51.172;6.808;2022-08-19T07:26:30;15.03;;;4.87;;
4292;SDS011;2160;51.172;6.808;2022-08-19T07:28:59;3.73;;;3.53;;
4292;SDS011;2160;51.172;6.808;2022-08-19T07:31:27;11.60;;;6.03;;
4292;SDS011;2160;51.172;6.808;2022-08-19T07:33:55;2.70;;;2.60;;
4292;SDS011;2160;51.172;6.808;2022-08-19T07:36:23;4.73;;;2.83;;
4292;SDS011;2160;51.172;6.808;2022-08-19T07:38:55;11.57;;;7.20;;
4292;SDS011;2160;51.172;6.808;2022-08-19T07:41:24;7.10;;;5.60;;
4292;SDS011;2160;51.172;6.808;2022-08-19T07:43:56;4.50;;;4.20;;
4292;SDS011;2160;51.172;6.808;2022-08-19T07:46:28;3.23;;;3.03;;
4292;SDS011;2160;51.172;6.808;2022-08-19T07:48:56;7.00;;;4.97;;
4292;SDS011;2160;51.172;6.808;2022-08-19T07:51:25;2.83;;;2.63;;
4292;SDS011;2160;51.172;6.808;2022-08-19T07:53:53;10.77;;;5.10;;
4292;SDS011;2160;51.172;6.808;2022-08-19T07:56:22;4.53;;;3.70;;
4292;SDS011;2160;51.172;6.808;2022-08-19T07:58:50;3.20;;;3.10;;
4292;SDS011;2160;51.172;6.808;2022-08-19T08:01:19;3.83;;;3.53;;
4292;SDS011;2160;51.172;6.808;2022-08-19T08:03:48;4.03;;;3.67;;
4292;SDS011;2160;51.172;6.808;2022-08-19T08:06:35;4.50;;;3.27;;
4292;SDS011;2160;51.172;6.808;2022-08-19T08:09:22;3.30;;;3.10;;
4292;SDS011;2160;51.172;6.808;2022-08-19T08:11:51;4.87;;;4.47;;
4292;SDS011;2160;51.172;6.808;2022-08-19T08:14:21;14.00;;;5.50;;
4292;SDS011;2160;51.172;6.808;2022-08-19T08:16:50;10.93;;;5.23;;
4292;SDS011;2160;51.172;6.808;2022-08-19T08:19:18;4.50;;;4.23;;
4292;SDS011;2160;51.172;6.808;2022-08-19T08:21:47;3.93;;;3.63;;
4292;SDS011;2160;51.172;6.808;2022-08-19T08:24:15;5.00;;;4.70;;
4292;SDS011;2160;51.172;6.808;2022-08-19T08:26:44;3.47;;;3.23;;
4292;SDS011;2160;51.172;6.808;2022-08-19T08:29:11;3.43;;;3.13;;
4292;SDS011;2160;51.172;6.808;2022-08-19T08:31:39;4.67;;;4.27;;
4292;SDS011;2160;51.172;6.808;2022-08-19T08:34:07;7.30;;;6.57;;
4292;SDS011;2160;51.172;6.808;2022-08-19T08:36:36;4.27;;;3.93;;
4292;SDS011;2160;51.172;6.808;2022-08-19T08:39:05;6.80;;;6.20;;
4292;SDS011;2160;51.172;6.808;2022-08-19T08:41:34;5.00;;;4.70;;
4292;SDS011;2160;51.172;6.808;2022-08-19T08:44:11;6.80;;;6.07;;
4292;SDS011;2160;51.172;6.808;2022-08-19T08:46:43;7.10;;;6.50;;
4292;SDS011;2160;51.172;6.808;2022-08-19T08:49:16;5.77;;;5.37;;
4292;SDS011;2160;51.172;6.808;2022-08-19T08:51:54;6.20;;;5.90;;
4292;SDS011;2160;51.172;6.808;2022-08-19T08:54:28;4.87;;;4.40;;
4292;SDS011;2160;51.172;6.808;2022-08-19T08:56:58;6.90;;;4.30;;
4292;SDS011;2160;51.172;6.808;2022-08-19T08:59:28;2.20;;;2.10;;
4292;SDS011;2160;51.172;6.808;2022-08-19T09:01:58;4.53;;;3.43;;
4292;SDS011;2160;51.172;6.808;2022-08-19T09:04:25;5.80;;;5.40;;
4292;SDS011;2160;51.172;6.808;2022-08-19T09:06:54;3.63;;;3.33;;
4292;SDS011;2160;51.172;6.808;2022-08-19T09:09:35;2.93;;;2.73;;
4292;SDS011;2160;51.172;6.808;2022-08-19T09:12:07;4.73;;;4.40;;
4292;SDS011;2160;51.172;6.808;2022-08-19T09:14:45;3.13;;;2.47;;
4292;SDS011;2160;51.172;6.808;2022-08-19T09:17:15;3.60;;;3.30;;
4292;SDS011;2160;51.172;6.808;2022-08-19T09:19:50;10.00;;;6.87;;
4292;SDS011;2160;51.172;6.808;2022-08-19T09:22:19;4.03;;;3.83;;
4292;SDS011;2160;51.172;6.808;2022-08-19T09:24:48;6.13;;;4.50;;
4292;SDS011;2160;51.172;6.808;2022-08-19T09:27:17;3.23;;;3.03;;
4292;SDS011;2160;51.172;6.808;2022-08-19T09:29:47;4.90;;;3.47;;
4292;SDS011;2160;51.172;6.808;2022-08-19T09:32:14;3.63;;;2.87;;
4292;SDS011;2160;51.172;6.808;2022-08-19T09:34:41;2.37;;;2.00;;
4292;SDS011;2160;51.172;6.808;2022-08-19T09:37:08;3.07;;;2.87;;
4292;SDS011;2160;51.172;6.808;2022-08-19T09:39:36;3.87;;;3.60;;
4292;SDS011;2160;51.172;6.808;2022-08-19T09:42:07;4.20;;;3.87;;
4292;SDS011;2160;51.172;6.808;2022-08-19T09:44:37;5.40;;;5.00;;
4292;SDS011;2160;51.172;6.808;2022-08-19T09:47:06;13.33;;;2.53;;
4292;SDS011;2160;51.172;6.808;2022-08-19T09:49:33;2.23;;;2.13;;
4292;SDS011;2160;51.172;6.808;2022-08-19T09:52:00;3.97;;;3.67;;
4292;SDS011;2160;51.172;6.808;2022-08-19T09:54:27;3.37;;;3.17;;
4292;SDS011;2160;51.172;6.808;2022-08-19T09:56:54;3.57;;;2.97;;
4292;SDS011;2160;51.172;6.808;2022-08-19T09:59:21;8.83;;;5.87;;
4292;SDS011;2160;51.172;6.808;2022-08-19T10:01:49;2.50;;;2.30;;
4292;SDS011;2160;51.172;6.808;2022-08-19T10:04:18;3.00;;;2.80;;
4292;SDS011;2160;51.172;6.808;2022-08-19T10:06:48;2.13;;;2.03;;
4292;SDS011;2160;51.172;6.808;2022-08-19T10:09:16;2.80;;;2.60;;
4292;SDS011;2160;51.172;6.808;2022-08-19T10:11:44;2.10;;;2.00;;
4292;SDS011;2160;51.172;6.808;2022-08-19T10:14:15;4.00;;;2.10;;
4292;SDS011;2160;51.172;6.808;2022-08-19T10:19:35;1.53;;;1.43;;
4292;SDS011;2160;51.172;6.808;2022-08-19T10:22:03;1.90;;;1.80;;
4292;SDS011;2160;51.172;6.808;2022-08-19T10:24:32;2.00;;;1.90;;
4292;SDS011;2160;51.172;6.808;2022-08-19T10:27:00;2.00;;;1.80;;
4292;SDS011;2160;51.172;6.808;2022-08-19T10:29:28;3.60;;;3.40;;
4292;SDS011;2160;51.172;6.808;2022-08-19T10:31:57;1.63;;;1.53;;
4292;SDS011;2160;51.172;6.808;2022-08-19T10:34:25;3.77;;;3.07;;
4292;SDS011;2160;51.172;6.808;2022-08-19T10:36:54;4.13;;;2.73;;
4292;SDS011;2160;51.172;6.808;2022-08-19T10:39:22;3.53;;;3.27;;
4292;SDS011;2160;51.172;6.808;2022-08-19T10:41:49;2.43;;;2.30;;
4292;SDS011;2160;51.172;6.808;2022-08-19T10:44:16;2.87;;;2.67;;
4292;SDS011;2160;51.172;6.808;2022-08-19T10:46:43;2.33;;;2.13;;
4292;SDS011;2160;51.172;6.808;2022-08-19T10:49:12;2.37;;;2.27;;
4292;SDS011;2160;51.172;6.808;2022-08-19T10:51:39;1.73;;;1.63;;
4292;SDS011;2160;51.172;6.808;2022-08-19T10:54:26;1.07;;;1.07;;
4292;SDS011;2160;51.172;6.808;2022-08-19T10:57:13;1.20;;;1.10;;
4292;SDS011;2160;51.172;6.808;2022-08-19T10:59:40;3.20;;;3.00;;
4292;SDS011;2160;51.172;6.808;2022-08-19T11:02:08;3.57;;;3.27;;
4292;SDS011;2160;51.172;6.808;2022-08-19T11:04:37;1.80;;;1.67;;
4292;SDS011;2160;51.172;6.808;2022-08-19T11:07:04;2.43;;;2.23;;
4292;SDS011;2160;51.172;6.808;2022-08-19T11:09:36;2.00;;;1.90;;
4292;SDS011;2160;51.172;6.808;2022-08-19T11:12:05;3.90;;;2.50;;
4292;SDS011;2160;51.172;6.808;2022-08-19T11:14:34;1.60;;;1.60;;
4292;SDS011;2160;51.172;6.808;2022-08-19T11:17:01;1.00;;;1.00;;
4292;SDS011;2160;51.172;6.808;2022-08-19T11:19:29;1.27;;;1.17;;
4292;SDS011;2160;51.172;6.808;2022-08-19T11:21:56;1.20;;;1.10;;
4292;SDS011;2160;51.172;6.808;2022-08-19T11:24:25;1.93;;;1.67;;
4292;SDS011;2160;51.172;6.808;2022-08-19T11:26:54;1.90;;;1.80;;
4292;SDS011;2160;51.172;6.808;2022-08-19T11:29:27;5.27;;;2.73;;
4292;SDS011;2160;51.172;6.808;2022-08-19T11:31:54;2.30;;;1.60;;
4292;SDS011;2160;51.172;6.808;2022-08-19T11:34:22;1.53;;;1.43;;
4292;SDS011;2160;51.172;6.808;2022-08-19T11:36:52;1.97;;;1.87;;
4292;SDS011;2160;51.172;6.808;2022-08-19T11:39:22;1.37;;;1.30;;
4292;SDS011;2160;51.172;6.808;2022-08-19T11:41:50;4.00;;;3.60;;
4292;SDS011;2160;51.172;6.808;2022-08-19T11:44:19;2.20;;;1.63;;
4292;SDS011;2160;51.172;6.808;2022-08-19T11:46:46;0.93;;;0.73;;
4292;SDS011;2160;51.172;6.808;2022-08-19T11:49:13;4.53;;;2.60;;
4292;SDS011;2160;51.172;6.808;2022-08-19T11:51:43;2.53;;;2.00;;
4292;SDS011;2160;51.172;6.808;2022-08-19T11:54:11;3.17;;;1.80;;
4292;SDS011;2160;51.172;6.808;2022-08-19T11:56:39;2.97;;;2.77;;
4292;SDS011;2160;51.172;6.808;2022-08-19T11:59:07;2.30;;;2.10;;
4292;SDS011;2160;51.172;6.808;2022-08-19T12:01:36;0.90;;;0.90;;
4292;SDS011;2160;51.172;6.808;2022-08-19T12:04:05;1.23;;;1.23;;
4292;SDS011;2160;51.172;6.808;2022-08-19T12:06:32;1.27;;;1.23;;
4292;SDS011;2160;51.172;6.808;2022-08-19T12:09:02;1.33;;;1.33;;
4292;SDS011;2160;51.172;6.808;2022-08-19T12:11:31;2.20;;;2.10;;
4292;SDS011;2160;51.172;6.808;2022-08-19T12:13:58;0.90;;;0.90;;
4292;SDS011;2160;51.172;6.808;2022-08-19T12:16:26;1.20;;;1.20;;
4292;SDS011;2160;51.172;6.808;2022-08-19T12:18:57;1.10;;;1.00;;
4292;SDS011;2160;51.172;6.808;2022-08-19T12:21:29;1.70;;;1.47;;
4292;SDS011;2160;51.172;6.808;2022-08-19T12:23:58;0.70;;;0.70;;
4292;SDS011;2160;51.172;6.808;2022-08-19T12:26:27;1.63;;;1.53;;
4292;SDS011;2160;51.172;6.808;2022-08-19T12:28:56;1.30;;;1.20;;
4292;SDS011;2160;51.172;6.808;2022-08-19T12:31:25;2.57;;;1.60;;
4292;SDS011;2160;51.172;6.808;2022-08-19T12:33:53;1.43;;;1.33;;
4292;SDS011;2160;51.172;6.808;2022-08-19T12:36:21;2.70;;;1.63;;
4292;SDS011;2160;51.172;6.808;2022-08-19T12:38:48;3.23;;;1.37;;
4292;SDS011;2160;51.172;6.808;2022-08-19T12:41:16;0.77;;;0.77;;
4292;SDS011;2160;51.172;6.808;2022-08-19T12:43:44;1.10;;;1.10;;
4292;SDS011;2160;51.172;6.808;2022-08-19T12:46:13;5.47;;;1.83;;
4292;SDS011;2160;51.172;6.808;2022-08-19T12:48:40;1.73;;;1.63;;
4292;SDS011;2160;51.172;6.808;2022-08-19T12:51:11;1.20;;;1.20;;
4292;SDS011;2160;51.172;6.808;2022-08-19T12:53:42;0.83;;;0.83;;
4292;SDS011;2160;51.172;6.808;2022-08-19T12:56:10;5.47;;;1.80;;
4292;SDS011;2160;51.172;6.808;2022-08-19T12:58:39;0.90;;;0.90;;
4292;SDS011;2160;51.172;6.808;2022-08-19T13:01:07;0.70;;;0.70;;
4292;SDS011;2160;51.172;6.808;2022-08-19T13:03:36;2.00;;;1.90;;
4292;SDS011;2160;51.172;6.808;2022-08-19T13:06:03;1.03;;;0.93;;
4292;SDS011;2160;51.172;6.808;2022-08-19T13:08:30;1.23;;;1.17;;
4292;SDS011;2160;51.172;6.808;2022-08-19T13:10:59;1.07;;;1.07;;
4292;SDS011;2160;51.172;6.808;2022-08-19T13:13:33;1.67;;;1.57;;
4292;SDS011;2160;51.172;6.808;2022-08-19T13:16:00;1.23;;;1.13;;
4292;SDS011;2160;51.172;6.808;2022-08-19T13:18:29;1.53;;;1.43;;
4292;SDS011;2160;51.172;6.808;2022-08-19T13:20:56;1.67;;;1.57;;
4292;SDS011;2160;51.172;6.808;2022-08-19T13:23:23;0.83;;;0.83;;
4292;SDS011;2160;51.172;6.808;2022-08-19T13:25:56;1.63;;;1.53;;
4292;SDS011;2160;51.172;6.808;2022-08-19T13:28:25;1.00;;;1.00;;
4292;SDS011;2160;51.172;6.808;2022-08-19T13:31:14;2.30;;;2.10;;
4292;SDS011;2160;51.172;6.808;2022-08-19T13:34:00;1.53;;;1.43;;
4292;SDS011;2160;51.172;6.808;2022-08-19T13:36:27;1.10;;;1.00;;
4292;SDS011;2160;51.172;6.808;2022-08-19T13:38:54;0.80;;;0.80;;
4292;SDS011;2160;51.172;6.808;2022-08-19T13:41:23;0.60;;;0.60;;
4292;SDS011;2160;51.172;6.808;2022-08-19T13:43:50;1.03;;;1.03;;
4292;SDS011;2160;51.172;6.808;2022-08-19T13:46:17;1.43;;;1.33;;
4292;SDS011;2160;51.172;6.808;2022-08-19T13:48:45;1.17;;;1.03;;
4292;SDS011;2160;51.172;6.808;2022-08-19T13:51:13;1.70;;;1.60;;
4292;SDS011;2160;51.172;6.808;2022-08-19T13:53:41;0.97;;;0.87;;
4292;SDS011;2160;51.172;6.808;2022-08-19T13:56:10;0.60;;;0.60;;
4292;SDS011;2160;51.172;6.808;2022-08-19T13:58:41;1.00;;;0.97;;
4292;SDS011;2160;51.172;6.808;2022-08-19T14:01:08;0.97;;;0.97;;
4292;SDS011;2160;51.172;6.808;2022-08-19T14:03:36;1.23;;;1.23;;
4292;SDS011;2160;51.172;6.808;2022-08-19T14:06:03;0.80;;;0.80;;
4292;SDS011;2160;51.172;6.808;2022-08-19T14:08:31;1.00;;;1.00;;
4292;SDS011;2160;51.172;6.808;2022-08-19T14:10:58;1.43;;;1.43;;
4292;SDS011;2160;51.172;6.808;2022-08-19T14:13:25;0.80;;;0.80;;
4292;SDS011;2160;51.172;6.808;2022-08-19T14:15:53;2.93;;;1.27;;
4292;SDS011;2160;51.172;6.808;2022-08-19T14:18:20;0.70;;;0.70;;
4292;SDS011;2160;51.172;6.808;2022-08-19T14:20:47;1.77;;;1.67;;
4292;SDS011;2160;51.172;6.808;2022-08-19T14:23:14;1.93;;;1.83;;
4292;SDS011;2160;51.172;6.808;2022-08-19T14:25:42;0.73;;;0.73;;
4292;SDS011;2160;51.172;6.808;2022-08-19T14:28:09;0.83;;;0.77;;
4292;SDS011;2160;51.172;6.808;2022-08-19T14:30:36;0.50;;;0.50;;
4292;SDS011;2160;51.172;6.808;2022-08-19T14:33:05;3.50;;;1.40;;
4292;SDS011;2160;51.172;6.808;2022-08-19T14:35:33;0.93;;;0.93;;
4292;SDS011;2160;51.172;6.808;2022-08-19T14:38:01;0.90;;;0.90;;
4292;SDS011;2160;51.172;6.808;2022-08-19T14:40:29;1.00;;;1.00;;
4292;SDS011;2160;51.172;6.808;2022-08-19T14:42:57;0.50;;;0.50;;
4292;SDS011;2160;51.172;6.808;2022-08-19T14:45:29;0.70;;;0.70;;
4292;SDS011;2160;51.172;6.808;2022-08-19T14:47:56;0.50;;;0.50;;
4292;SDS011;2160;51.172;6.808;2022-08-19T14:50:25;1.20;;;1.17;;
4292;SDS011;2160;51.172;6.808;2022-08-19T14:52:57;1.33;;;1.23;;
4292;SDS011;2160;51.172;6.808;2022-08-19T14:55:25;0.80;;;0.80;;
4292;SDS011;2160;51.172;6.808;2022-08-19T14:57:52;0.60;;;0.60;;
4292;SDS011;2160;51.172;6.808;2022-08-19T15:00:20;0.70;;;0.70;;
4292;SDS011;2160;51.172;6.808;2022-08-19T15:02:48;1.67;;;1.57;;
4292;SDS011;2160;51.172;6.808;2022-08-19T15:05:15;1.23;;;1.13;;
4292;SDS011;2160;51.172;6.808;2022-08-19T15:07:43;2.17;;;1.83;;
4292;SDS011;2160;51.172;6.808;2022-08-19T15:10:11;1.07;;;1.07;;
4292;SDS011;2160;51.172;6.808;2022-08-19T15:12:39;1.27;;;1.20;;
4292;SDS011;2160;51.172;6.808;2022-08-19T15:15:08;0.77;;;0.77;;
4292;SDS011;2160;51.172;6.808;2022-08-19T15:17:37;0.63;;;0.63;;
4292;SDS011;2160;51.172;6.808;2022-08-19T15:20:06;0.50;;;0.50;;
4292;SDS011;2160;51.172;6.808;2022-08-19T15:22:33;0.80;;;0.80;;
4292;SDS011;2160;51.172;6.808;2022-08-19T15:25:03;1.90;;;1.80;;
4292;SDS011;2160;51.172;6.808;2022-08-19T15:27:32;1.00;;;0.97;;
4292;SDS011;2160;51.172;6.808;2022-08-19T15:29:59;0.63;;;0.63;;
4292;SDS011;2160;51.172;6.808;2022-08-19T15:32:26;0.70;;;0.70;;
4292;SDS011;2160;51.172;6.808;2022-08-19T15:34:53;3.67;;;1.63;;
4292;SDS011;2160;51.172;6.808;2022-08-19T15:37:21;0.53;;;0.53;;
4292;SDS011;2160;51.172;6.808;2022-08-19T15:39:49;0.73;;;0.73;;
4292;SDS011;2160;51.172;6.808;2022-08-19T15:42:17;0.80;;;0.80;;
4292;SDS011;2160;51.172;6.808;2022-08-19T15:44:45;1.23;;;0.83;;
4292;SDS011;2160;51.172;6.808;2022-08-19T15:47:12;0.80;;;0.80;;
4292;SDS011;2160;51.172;6.808;2022-08-19T15:49:40;1.30;;;1.20;;
4292;SDS011;2160;51.172;6.808;2022-08-19T15:52:07;1.17;;;1.17;;
4292;SDS011;2160;51.172;6.808;2022-08-19T15:54:33;1.00;;;0.97;;
4292;SDS011;2160;51.172;6.808;2022-08-19T15:57:00;2.73;;;2.53;;
4292;SDS011;2160;51.172;6.808;2022-08-19T15:59:46;0.83;;;0.83;;
4292;SDS011;2160;51.172;6.808;2022-08-19T16:02:31;1.00;;;1.00;;
4292;SDS011;2160;51.172;6.808;2022-08-19T16:05:18;1.93;;;1.73;;
4292;SDS011;2160;51.172;6.808;2022-08-19T16:08:09;0.90;;;0.90;;
4292;SDS011;2160;51.172;6.808;2022-08-19T16:10:37;1.13;;;1.10;;
4292;SDS011;2160;51.172;6.808;2022-08-19T16:13:04;1.30;;;1.20;;
4292;SDS011;2160;51.172;6.808;2022-08-19T16:15:33;1.07;;;1.07;;
4292;SDS011;2160;51.172;6.808;2022-08-19T16:18:00;2.60;;;1.07;;
4292;SDS011;2160;51.172;6.808;2022-08-19T16:20:31;1.43;;;0.80;;
4292;SDS011;2160;51.172;6.808;2022-08-19T16:23:08;1.60;;;1.50;;
4292;SDS011;2160;51.172;6.808;2022-08-19T16:25:39;0.80;;;0.80;;
4292;SDS011;2160;51.172;6.808;2022-08-19T16:28:15;1.47;;;1.37;;
4292;SDS011;2160;51.172;6.808;2022-08-19T16:30:51;0.97;;;0.97;;
4292;SDS011;2160;51.172;6.808;2022-08-19T16:33:18;0.50;;;0.50;;
4292;SDS011;2160;51.172;6.808;2022-08-19T16:35:45;1.07;;;0.60;;
4292;SDS011;2160;51.172;6.808;2022-08-19T16:38:12;1.50;;;1.40;;
4292;SDS011;2160;51.172;6.808;2022-08-19T16:40:39;1.23;;;1.13;;
4292;SDS011;2160;51.172;6.808;2022-08-19T16:43:06;0.70;;;0.70;;
4292;SDS011;2160;51.172;6.808;2022-08-19T16:45:34;0.80;;;0.80;;
4292;SDS011;2160;51.172;6.808;2022-08-19T16:48:02;0.83;;;0.83;;
4292;SDS011;2160;51.172;6.808;2022-08-19T16:50:30;1.43;;;1.33;;
4292;SDS011;2160;51.172;6.808;2022-08-19T16:52:57;0.77;;;0.77;;
4292;SDS011;2160;51.172;6.808;2022-08-19T16:55:24;0.70;;;0.70;;
4292;SDS011;2160;51.172;6.808;2022-08-19T16:57:52;0.87;;;0.70;;
4292;SDS011;2160;51.172;6.808;2022-08-19T17:00:19;1.47;;;1.37;;
4292;SDS011;2160;51.172;6.808;2022-08-19T17:02:46;0.50;;;0.50;;
4292;SDS011;2160;51.172;6.808;2022-08-19T17:05:14;0.70;;;0.70;;
4292;SDS011;2160;51.172;6.808;2022-08-19T17:07:43;1.07;;;0.97;;
4292;SDS011;2160;51.172;6.808;2022-08-19T17:10:09;0.77;;;0.77;;
4292;SDS011;2160;51.172;6.808;2022-08-19T17:12:36;0.80;;;0.80;;
4292;SDS011;2160;51.172;6.808;2022-08-19T17:15:05;0.60;;;0.60;;
4292;SDS011;2160;51.172;6.808;2022-08-19T17:17:33;0.80;;;0.80;;
4292;SDS011;2160;51.172;6.808;2022-08-19T17:20:01;0.60;;;0.60;;
4292;SDS011;2160;51.172;6.808;2022-08-19T17:22:33;1.00;;;0.93;;
4292;SDS011;2160;51.172;6.808;2022-08-19T17:25:01;0.97;;;0.97;;
4292;SDS011;2160;51.172;6.808;2022-08-19T17:27:28;0.60;;;0.60;;
4292;SDS011;2160;51.172;6.808;2022-08-19T17:29:55;1.27;;;0.97;;
4292;SDS011;2160;51.172;6.808;2022-08-19T17:32:24;5.40;;;1.23;;
4292;SDS011;2160;51.172;6.808;2022-08-19T17:34:51;0.97;;;0.97;;
4292;SDS011;2160;51.172;6.808;2022-08-19T17:37:19;1.43;;;1.33;;
4292;SDS011;2160;51.172;6.808;2022-08-19T17:39:47;2.20;;;1.53;;
4292;SDS011;2160;51.172;6.808;2022-08-19T17:42:14;0.50;;;0.50;;
4292;SDS011;2160;51.172;6.808;2022-08-19T17:44:44;0.80;;;0.80;;
4292;SDS011;2160;51.172;6.808;2022-08-19T17:47:11;0.93;;;0.83;;
4292;SDS011;2160;51.172;6.808;2022-08-19T17:49:38;1.90;;;1.63;;
4292;SDS011;2160;51.172;6.808;2022-08-19T17:52:05;1.03;;;0.93;;
4292;SDS011;2160;51.172;6.808;2022-08-19T17:54:32;0.60;;;0.60;;
4292;SDS011;2160;51.172;6.808;2022-08-19T17:57:00;2.30;;;1.43;;
4292;SDS011;2160;51.172;6.808;2022-08-19T17:59:27;0.70;;;0.70;;
4292;SDS011;2160;51.172;6.808;2022-08-19T18:01:54;1.53;;;1.43;;
4292;SDS011;2160;51.172;6.808;2022-08-19T18:04:24;0.57;;;0.57;;
4292;SDS011;2160;51.172;6.808;2022-08-19T18:06:54;1.43;;;1.03;;
4292;SDS011;2160;51.172;6.808;2022-08-19T18:09:22;0.80;;;0.80;;
4292;SDS011;2160;51.172;6.808;2022-08-19T18:11:52;0.70;;;0.70;;
4292;SDS011;2160;51.172;6.808;2022-08-19T18:14:22;0.70;;;0.70;;
4292;SDS011;2160;51.172;6.808;2022-08-19T18:16:52;1.03;;;1.03;;
4292;SDS011;2160;51.172;6.808;2022-08-19T18:19:19;0.60;;;0.60;;
4292;SDS011;2160;51.172;6.808;2022-08-19T18:21:46;0.83;;;0.83;;
4292;SDS011;2160;51.172;6.808;2022-08-19T18:24:14;0.60;;;0.60;;
4292;SDS011;2160;51.172;6.808;2022-08-19T18:26:41;0.90;;;0.90;;
4292;SDS011;2160;51.172;6.808;2022-08-19T18:29:08;0.93;;;0.93;;
4292;SDS011;2160;51.172;6.808;2022-08-19T18:31:36;2.40;;;2.20;;
4292;SDS011;2160;51.172;6.808;2022-08-19T18:34:04;1.10;;;1.00;;
4292;SDS011;2160;51.172;6.808;2022-08-19T18:36:31;0.50;;;0.50;;
4292;SDS011;2160;51.172;6.808;2022-08-19T18:38:59;0.70;;;0.70;;
4292;SDS011;2160;51.172;6.808;2022-08-19T18:41:43;0.80;;;0.80;;
4292;SDS011;2160;51.172;6.808;2022-08-19T18:44:27;1.57;;;1.43;;
4292;SDS011;2160;51.172;6.808;2022-08-19T18:47:13;1.13;;;1.03;;
4292;SDS011;2160;51.172;6.808;2022-08-19T18:49:57;0.70;;;0.70;;
4292;SDS011;2160;51.172;6.808;2022-08-19T18:52:32;0.60;;;0.60;;
4292;SDS011;2160;51.172;6.808;2022-08-19T18:54:59;1.83;;;1.53;;
4292;SDS011;2160;51.172;6.808;2022-08-19T18:57:26;0.70;;;0.70;;
4292;SDS011;2160;51.172;6.808;2022-08-19T18:59:53;0.80;;;0.80;;
4292;SDS011;2160;51.172;6.808;2022-08-19T19:02:22;1.07;;;1.07;;
4292;SDS011;2160;51.172;6.808;2022-08-19T19:04:49;0.73;;;0.73;;
4292;SDS011;2160;51.172;6.808;2022-08-19T19:07:16;2.20;;;1.00;;
4292;SDS011;2160;51.172;6.808;2022-08-19T19:09:44;1.00;;;1.00;;
4292;SDS011;2160;51.172;6.808;2022-08-19T19:12:13;1.00;;;1.00;;
4292;SDS011;2160;51.172;6.808;2022-08-19T19:14:44;0.60;;;0.60;;
4292;SDS011;2160;51.172;6.808;2022-08-19T19:17:13;1.23;;;1.13;;
4292;SDS011;2160;51.172;6.808;2022-08-19T19:19:54;0.70;;;0.70;;
4292;SDS011;2160;51.172;6.808;2022-08-19T19:22:59;1.00;;;0.90;;
4292;SDS011;2160;51.172;6.808;2022-08-19T19:25:26;1.63;;;1.53;;
4292;SDS011;2160;51.172;6.808;2022-08-19T19:27:58;3.13;;;1.60;;
4292;SDS011;2160;51.172;6.808;2022-08-19T19:30:26;1.37;;;1.27;;